Time;durP1;ratioP1;P1;durP2;ratioP2;P2;SDS_P1;SDS_P2;PMS_P1;PMS_P2;Temp;Humidity;BMP_temperature;BMP_pressure;BME280_temperature;BME280_humidity;BME280_pressure;Samples;Min_cycle;Max_cycle;Signal;HPM_P1;HPM_P2
2022/09/28 00:00:56;;;;;;;2.85;1.33;;;8.30;99.90;;;;;;4989677;28;20443;-59
2022/09/28 00:03:22;;;;;;;0.73;0.30;;;8.20;99.90;;;;;;4991188;28;20114;-60
2022/09/28 00:05:48;;;;;;;2.78;0.63;;;8.30;99.90;;;;;;4987250;28;20030;-58
2022/09/28 00:08:14;;;;;;;4.85;0.70;;;8.30;99.90;;;;;;4991765;28;20418;-58
2022/09/28 00:10:42;;;;;;;3.35;0.88;;;8.30;99.90;;;;;;4988781;28;20062;-59
2022/09/28 00:13:08;;;;;;;2.38;0.80;;;8.40;99.90;;;;;;4988746;28;20033;-59
2022/09/28 00:15:34;;;;;;;3.95;1.15;;;8.40;99.90;;;;;;4991723;28;20030;-58
2022/09/28 00:18:00;;;;;;;3.00;0.70;;;8.30;99.90;;;;;;4989981;28;20482;-59
2022/09/28 00:20:25;;;;;;;1.65;0.55;;;8.30;99.90;;;;;;4990737;28;20018;-59
2022/09/28 00:22:51;;;;;;;0.80;0.47;;;8.30;99.90;;;;;;4989765;28;20065;-59
2022/09/28 00:25:17;;;;;;;4.55;0.95;;;8.40;99.90;;;;;;4991292;28;20026;-59
2022/09/28 00:27:49;;;;;;;3.70;1.30;;;8.40;99.90;;;;;;4990148;28;20018;-59
2022/09/28 00:30:15;;;;;;;2.22;0.50;;;8.30;99.90;;;;;;4986941;28;20050;-58
2022/09/28 00:32:41;;;;;;;4.80;0.98;;;8.30;99.90;;;;;;4990237;28;20036;-59
2022/09/28 00:35:07;;;;;;;1.17;0.20;;;8.20;99.90;;;;;;4989019;28;20080;-59
2022/09/28 00:37:33;;;;;;;1.30;0.28;;;8.20;99.90;;;;;;4991242;28;20073;-58
2022/09/28 00:39:59;;;;;;;3.78;0.70;;;8.10;99.90;;;;;;4989369;28;20189;-59
2022/09/28 00:42:25;;;;;;;0.73;0.40;;;8.10;99.90;;;;;;4990622;28;20131;-59
2022/09/28 00:44:55;;;;;;;2.58;0.50;;;8.10;99.90;;;;;;4988296;28;20402;-59
2022/09/28 00:47:31;;;;;;;1.98;0.98;;;8.00;99.90;;;;;;4990178;28;20425;-59
2022/09/28 00:50:15;;;;;;;5.00;0.38;;;8.00;99.90;;;;;;4980036;28;20034;-59
2022/09/28 00:53:05;;;;;;;1.23;0.50;;;8.00;99.90;;;;;;4991908;28;20434;-59
2022/09/28 00:55:40;;;;;;;1.30;0.30;;;7.90;99.90;;;;;;4984886;28;20041;-59
2022/09/28 00:58:10;;;;;;;0.93;0.20;;;8.00;99.90;;;;;;4986187;28;20069;-59
2022/09/28 01:00:39;;;;;;;3.83;0.30;;;8.00;99.90;;;;;;4991288;28;20522;-59
2022/09/28 01:03:06;;;;;;;0.93;0.30;;;7.90;99.90;;;;;;4988807;28;20030;-59
2022/09/28 01:05:33;;;;;;;1.45;0.40;;;7.90;99.90;;;;;;4991191;28;20129;-60
2022/09/28 01:08:00;;;;;;;5.53;0.85;;;7.90;99.90;;;;;;4989819;28;20077;-60
2022/09/28 01:10:29;;;;;;;2.90;0.73;;;7.90;99.90;;;;;;4984616;28;20121;-60
2022/09/28 01:12:55;;;;;;;1.73;0.35;;;7.80;99.90;;;;;;4974932;28;20022;-60
2022/09/28 01:15:23;;;;;;;2.75;0.52;;;7.80;99.90;;;;;;4990085;28;20060;-59
2022/09/28 01:18:07;;;;;;;1.85;0.40;;;7.70;99.90;;;;;;4987660;28;20030;-59
2022/09/28 01:21:09;;;;;;;1.13;0.45;;;7.70;99.90;;;;;;4989384;28;20038;-59
2022/09/28 01:23:43;;;;;;;1.70;0.50;;;7.60;99.90;;;;;;4987163;28;20038;-59
2022/09/28 01:26:24;;;;;;;3.95;0.60;;;7.70;99.90;;;;;;4988383;28;20022;-59
2022/09/28 01:28:58;;;;;;;0.70;0.38;;;7.70;99.90;;;;;;4988495;28;20470;-59
2022/09/28 01:31:29;;;;;;;2.10;0.32;;;7.60;99.90;;;;;;4989818;28;20109;-59
2022/09/28 01:34:01;;;;;;;8.32;0.68;;;7.60;99.90;;;;;;4988340;28;20026;-59
2022/09/28 01:36:33;;;;;;;;;;;7.60;99.90;;;;;;4990223;28;20081;-59
2022/09/28 01:39:12;;;;;;;1.20;0.30;;;7.60;99.90;;;;;;4987725;28;19910;-59
2022/09/28 01:41:40;;;;;;;2.83;1.33;;;7.60;99.90;;;;;;4989885;28;20073;-59
2022/09/28 01:44:11;;;;;;;0.93;0.40;;;7.50;99.90;;;;;;4987440;28;20034;-59
2022/09/28 01:46:41;;;;;;;4.18;1.08;;;7.50;99.90;;;;;;4989476;28;20053;-59
2022/09/28 01:49:18;;;;;;;2.65;0.30;;;7.50;99.90;;;;;;4984528;28;20474;-59
2022/09/28 01:51:54;;;;;;;0.82;0.45;;;7.40;99.90;;;;;;4990323;28;20436;-59
2022/09/28 01:54:28;;;;;;;4.05;0.85;;;7.40;99.90;;;;;;4987904;28;20169;-59
2022/09/28 01:57:01;;;;;;;4.30;0.73;;;7.50;99.90;;;;;;4977160;28;20038;-58
2022/09/28 01:59:31;;;;;;;1.95;0.45;;;7.50;99.90;;;;;;4989251;28;20109;-60
2022/09/28 02:01:59;;;;;;;1.48;0.65;;;7.50;99.90;;;;;;4988393;28;20398;-59
2022/09/28 02:04:48;;;;;;;3.17;0.47;;;7.50;99.90;;;;;;4989876;28;20390;-59
2022/09/28 02:07:20;;;;;;;4.75;0.90;;;7.60;99.90;;;;;;4981281;28;20440;-58
2022/09/28 02:10:11;;;;;;;3.13;0.30;;;7.50;99.90;;;;;;4987924;28;20038;-58
2022/09/28 02:12:51;;;;;;;5.82;0.57;;;7.50;99.90;;;;;;4979523;28;20077;-59
2022/09/28 02:15:28;;;;;;;1.90;0.50;;;7.40;99.90;;;;;;4989773;28;20414;-59
2022/09/28 02:17:53;;;;;;;5.13;0.60;;;7.40;99.90;;;;;;4979574;28;20466;-59
2022/09/28 02:20:20;;;;;;;1.63;0.25;;;7.30;99.90;;;;;;4989398;28;20031;-58
2022/09/28 02:22:50;;;;;;;3.90;1.08;;;7.30;99.90;;;;;;4988587;28;20046;-59
2022/09/28 02:25:22;;;;;;;3.65;0.70;;;7.30;99.90;;;;;;4985962;28;20072;-58
2022/09/28 02:27:59;;;;;;;;;;;7.30;99.90;;;;;;4986285;28;20034;-56
2022/09/28 02:30:25;;;;;;;2.85;0.52;;;7.40;99.90;;;;;;4989784;28;19965;-58
2022/09/28 02:32:54;;;;;;;6.60;0.70;;;7.30;99.90;;;;;;4988420;28;20084;-57
2022/09/28 02:35:22;;;;;;;3.00;0.82;;;7.30;99.90;;;;;;4989533;28;20030;-59
2022/09/28 02:37:49;;;;;;;4.97;0.68;;;7.30;99.90;;;;;;4986494;28;20034;-59
2022/09/28 02:40:18;;;;;;;1.55;0.30;;;7.30;99.90;;;;;;4988919;28;20410;-59
2022/09/28 02:43:08;;;;;;;1.63;0.30;;;7.30;99.90;;;;;;4989205;28;20030;-58
2022/09/28 02:46:00;;;;;;;1.65;0.80;;;7.20;99.90;;;;;;4988029;28;20031;-59
2022/09/28 02:48:41;;;;;;;1.67;0.30;;;7.10;99.90;;;;;;4986923;28;20034;-58
2022/09/28 02:51:48;;;;;;;3.60;0.45;;;7.10;99.90;;;;;;4983085;28;20462;-58
2022/09/28 02:54:40;;;;;;;3.72;0.45;;;7.10;99.90;;;;;;4990592;28;20117;-58
2022/09/28 02:57:17;;;;;;;6.00;0.52;;;7.20;99.90;;;;;;4988865;28;20441;-59
2022/09/28 03:00:10;;;;;;;2.95;1.52;;;7.10;99.90;;;;;;4993302;28;20050;-58
2022/09/28 03:03:20;;;;;;;0.50;0.20;;;7.10;99.90;;;;;;4984251;28;20026;-59
2022/09/28 03:05:59;;;;;;;0.95;0.40;;;7.10;99.90;;;;;;4991578;28;20042;-60
2022/09/28 03:08:39;;;;;;;1.73;0.43;;;7.00;99.90;;;;;;4990907;28;20030;-58
2022/09/28 03:11:18;;;;;;;2.35;0.52;;;7.00;99.90;;;;;;4982376;28;20080;-59
2022/09/28 03:13:45;;;;;;;1.08;0.40;;;7.00;99.90;;;;;;4990802;28;20491;-58
2022/09/28 03:16:14;;;;;;;5.35;0.68;;;7.00;99.90;;;;;;4987845;28;20363;-58
2022/09/28 03:18:40;;;;;;;4.88;0.85;;;7.10;99.90;;;;;;4991503;28;20485;-59
2022/09/28 03:21:06;;;;;;;3.92;0.40;;;7.10;99.90;;;;;;4991236;28;20508;-58
2022/09/28 03:23:32;;;;;;;4.50;0.80;;;7.00;99.90;;;;;;4992488;28;20453;-58
2022/09/28 03:25:59;;;;;;;4.43;0.38;;;7.00;99.90;;;;;;4987474;28;20040;-59
2022/09/28 03:28:25;;;;;;;3.47;0.60;;;7.00;99.90;;;;;;4990939;28;20038;-58
2022/09/28 03:30:50;;;;;;;2.25;0.50;;;6.90;99.90;;;;;;4990812;28;20026;-59
2022/09/28 03:33:18;;;;;;;2.70;0.50;;;7.00;99.90;;;;;;4992876;28;20089;-58
2022/09/28 03:35:49;;;;;;;2.50;0.80;;;7.00;99.90;;;;;;4987273;28;20035;-59
2022/09/28 03:38:18;;;;;;;2.30;0.47;;;7.00;99.90;;;;;;4991532;28;20026;-58
2022/09/28 03:41:00;;;;;;;1.35;0.30;;;7.00;99.90;;;;;;4992175;28;20466;-58
2022/09/28 03:43:28;;;;;;;3.38;0.75;;;7.00;99.90;;;;;;4992010;28;20042;-59
2022/09/28 03:45:57;;;;;;;2.25;0.55;;;7.00;99.90;;;;;;4988539;28;20026;-58
2022/09/28 03:48:29;;;;;;;3.60;1.55;;;6.90;99.90;;;;;;4990273;28;20022;-59
2022/09/28 03:50:56;;;;;;;6.05;0.40;;;7.00;99.90;;;;;;4986513;28;20026;-59
2022/09/28 03:53:22;;;;;;;1.17;0.60;;;6.90;99.90;;;;;;4992335;28;20044;-58
2022/09/28 03:55:51;;;;;;;2.85;0.50;;;7.00;99.90;;;;;;4982174;28;20051;-59
2022/09/28 03:58:21;;;;;;;3.72;0.63;;;6.90;99.90;;;;;;4988686;28;20050;-59
2022/09/28 04:00:47;;;;;;;1.60;0.45;;;6.80;99.90;;;;;;4989135;28;20077;-59
2022/09/28 04:03:13;;;;;;;4.53;0.57;;;6.90;99.90;;;;;;4984207;28;20069;-58
2022/09/28 04:05:47;;;;;;;1.52;0.50;;;6.90;99.90;;;;;;4984715;28;20062;-59
2022/09/28 04:08:16;;;;;;;1.60;0.73;;;6.90;99.90;;;;;;4988468;28;20029;-58
2022/09/28 04:10:42;;;;;;;0.82;0.55;;;6.80;99.90;;;;;;4990647;28;20042;-58
2022/09/28 04:13:07;;;;;;;3.47;0.98;;;6.80;99.90;;;;;;4988109;28;20035;-58
2022/09/28 04:15:33;;;;;;;3.10;0.60;;;6.80;99.90;;;;;;4991628;28;20088;-58
2022/09/28 04:17:59;;;;;;;5.13;0.73;;;6.70;99.90;;;;;;4988190;28;20090;-58
2022/09/28 04:20:25;;;;;;;1.48;0.50;;;6.60;99.90;;;;;;4991545;28;20022;-58
2022/09/28 04:22:51;;;;;;;5.38;0.88;;;6.70;99.90;;;;;;4990162;28;20030;-58
2022/09/28 04:25:16;;;;;;;4.18;0.95;;;6.70;99.90;;;;;;4990683;28;20034;-58
2022/09/28 04:30:26;;;;;;;1.80;0.70;;;6.70;99.90;;;;;;4989101;28;20049;-57
2022/09/28 04:32:52;;;;;;;2.60;0.70;;;6.70;99.90;;;;;;4989699;28;20506;-57
2022/09/28 04:35:18;;;;;;;2.33;0.80;;;6.60;99.90;;;;;;4989575;28;20045;-57
2022/09/28 04:37:44;;;;;;;3.05;0.82;;;6.70;99.90;;;;;;4989338;28;20034;-57
2022/09/28 04:40:10;;;;;;;4.28;0.93;;;6.70;99.90;;;;;;4989678;28;20054;-59
2022/09/28 04:42:35;;;;;;;1.15;0.35;;;6.70;99.90;;;;;;4991041;28;20422;-59
2022/09/28 04:45:03;;;;;;;2.10;0.75;;;6.70;99.90;;;;;;4988264;28;20139;-59
2022/09/28 04:47:29;;;;;;;2.60;0.55;;;6.70;99.90;;;;;;4986926;28;20023;-59
2022/09/28 04:49:55;;;;;;;1.80;0.45;;;6.60;99.90;;;;;;4989439;28;20572;-59
2022/09/28 04:52:22;;;;;;;1.88;0.50;;;6.70;99.90;;;;;;4987787;28;20031;-59
2022/09/28 04:54:47;;;;;;;4.90;0.45;;;6.70;99.90;;;;;;4987814;28;20027;-59
2022/09/28 04:57:13;;;;;;;1.98;0.63;;;6.60;99.90;;;;;;4990354;28;20065;-59
2022/09/28 04:59:39;;;;;;;6.20;0.73;;;6.50;99.90;;;;;;4988689;28;20057;-59
2022/09/28 05:02:05;;;;;;;2.47;0.75;;;6.40;99.90;;;;;;4986654;28;20031;-59
2022/09/28 05:04:30;;;;;;;4.70;0.70;;;6.30;99.90;;;;;;4990457;28;20434;-59
2022/09/28 05:06:56;;;;;;;3.45;0.45;;;6.20;99.90;;;;;;4983711;28;20049;-59
2022/09/28 05:09:22;;;;;;;2.85;0.38;;;6.10;99.90;;;;;;4990845;28;20023;-60
2022/09/28 05:11:49;;;;;;;1.13;0.30;;;6.20;99.90;;;;;;4986164;28;20029;-59
2022/09/28 05:14:15;;;;;;;3.53;0.95;;;6.20;99.90;;;;;;4983484;28;20023;-59
2022/09/28 05:16:41;;;;;;;1.65;0.30;;;6.20;99.90;;;;;;4987505;28;20034;-59
2022/09/28 05:19:07;;;;;;;4.00;0.50;;;6.30;99.90;;;;;;4987426;28;20038;-59
2022/09/28 05:21:35;;;;;;;5.53;0.52;;;6.40;99.90;;;;;;4990291;28;20022;-59
2022/09/28 05:24:06;;;;;;;2.55;0.55;;;6.50;99.90;;;;;;4986842;28;20035;-58
2022/09/28 05:26:34;;;;;;;1.38;0.65;;;6.50;99.90;;;;;;4987750;28;20129;-59
2022/09/28 05:28:59;;;;;;;2.55;1.27;;;6.50;99.90;;;;;;4987121;28;20545;-58
2022/09/28 05:31:28;;;;;;;6.68;0.80;;;6.60;99.90;;;;;;4985231;28;20146;-59
2022/09/28 05:33:54;;;;;;;1.48;0.73;;;6.60;99.90;;;;;;4987916;28;20031;-59
2022/09/28 05:36:20;;;;;;;1.40;0.68;;;6.70;99.90;;;;;;4988326;28;20044;-58
2022/09/28 05:38:46;;;;;;;6.20;0.88;;;6.80;99.90;;;;;;4989412;28;20030;-58
2022/09/28 05:41:12;;;;;;;2.03;0.30;;;6.90;99.90;;;;;;4980358;28;20189;-58
2022/09/28 05:43:38;;;;;;;1.60;0.38;;;6.90;99.90;;;;;;4984819;28;20506;-58
2022/09/28 05:46:05;;;;;;;3.22;0.50;;;6.90;99.90;;;;;;4988832;28;20113;-58
2022/09/28 05:48:31;;;;;;;2.70;0.55;;;6.80;99.90;;;;;;4988784;28;20034;-58
2022/09/28 05:50:58;;;;;;;7.88;0.93;;;6.80;99.90;;;;;;4987819;28;20062;-58
2022/09/28 05:53:27;;;;;;;6.93;0.95;;;6.80;99.90;;;;;;4988768;28;20034;-58
2022/09/28 05:55:58;;;;;;;1.73;0.40;;;6.80;99.90;;;;;;4987512;28;20033;-57
2022/09/28 05:58:23;;;;;;;2.17;0.32;;;6.90;99.90;;;;;;4988009;28;20033;-58
2022/09/28 06:00:54;;;;;;;4.40;0.43;;;6.90;99.90;;;;;;4987181;28;20042;-59
2022/09/28 06:03:20;;;;;;;1.00;0.32;;;7.00;99.90;;;;;;4984042;28;20176;-59
2022/09/28 06:05:46;;;;;;;0.55;0.50;;;7.00;99.90;;;;;;4986400;28;20554;-59
2022/09/28 06:08:12;;;;;;;2.80;0.60;;;7.00;99.90;;;;;;4988344;28;20462;-59
2022/09/28 06:10:38;;;;;;;2.90;0.20;;;7.10;99.90;;;;;;4989453;28;20041;-59
2022/09/28 06:13:05;;;;;;;12.18;1.20;;;7.20;99.90;;;;;;4983881;28;20027;-60
2022/09/28 06:15:32;;;;;;;3.95;0.65;;;7.20;99.90;;;;;;4989833;28;20125;-59
2022/09/28 06:18:06;;;;;;;3.92;0.45;;;7.30;99.90;;;;;;4986235;28;20022;-60
2022/09/28 06:20:35;;;;;;;0.63;0.50;;;7.30;99.90;;;;;;4984325;28;20030;-59
2022/09/28 06:23:00;;;;;;;0.98;0.40;;;7.30;99.90;;;;;;4987255;28;20031;-59
2022/09/28 06:25:26;;;;;;;6.00;0.85;;;7.30;99.90;;;;;;4993442;28;20410;-59
2022/09/28 06:28:13;;;;;;;1.13;0.60;;;7.40;99.90;;;;;;4991114;28;20022;-59
2022/09/28 06:30:39;;;;;;;3.78;0.77;;;7.40;99.90;;;;;;4989909;28;20042;-58
2022/09/28 06:33:08;;;;;;;1.55;0.57;;;7.40;99.90;;;;;;4982133;28;20113;-61
2022/09/28 06:35:35;;;;;;;3.13;1.10;;;7.40;99.90;;;;;;4990334;28;20038;-59
2022/09/28 06:38:01;;;;;;;5.60;0.65;;;7.40;99.90;;;;;;4990837;28;20050;-59
2022/09/28 06:40:27;;;;;;;4.32;0.75;;;7.40;99.90;;;;;;4990812;28;21786;-58
2022/09/28 06:43:00;;;;;;;2.22;0.30;;;7.50;99.90;;;;;;4986875;28;20038;-58
2022/09/28 06:45:27;;;;;;;3.30;0.55;;;7.50;99.90;;;;;;4983432;28;20402;-59
2022/09/28 06:47:58;;;;;;;7.43;0.50;;;7.50;99.90;;;;;;4985383;28;20022;-59
2022/09/28 06:50:26;;;;;;;1.95;0.50;;;7.50;99.90;;;;;;4988540;28;20363;-59
2022/09/28 06:52:53;;;;;;;2.75;0.40;;;7.50;99.90;;;;;;4988413;28;20030;-59
2022/09/28 06:55:20;;;;;;;1.42;0.55;;;7.50;99.90;;;;;;4986231;28;20027;-59
2022/09/28 06:57:47;;;;;;;2.70;0.40;;;7.50;99.90;;;;;;4988585;28;20029;-59
2022/09/28 07:00:14;;;;;;;1.05;0.50;;;7.50;99.90;;;;;;4989580;28;20433;-60
2022/09/28 07:02:40;;;;;;;4.47;1.60;;;7.50;99.90;;;;;;4990002;28;20037;-59
2022/09/28 07:05:08;;;;;;;5.72;0.47;;;7.50;99.90;;;;;;4987838;28;20407;-59
2022/09/28 07:07:34;;;;;;;3.22;0.65;;;7.50;99.90;;;;;;4985226;28;20085;-59
2022/09/28 07:09:59;;;;;;;11.95;2.03;;;7.60;99.90;;;;;;4987069;28;20057;-59
2022/09/28 07:12:25;;;;;;;2.63;0.98;;;7.60;99.90;;;;;;4989150;28;20053;-59
2022/09/28 07:14:56;;;;;;;6.93;0.45;;;7.70;99.90;;;;;;4985864;28;20036;-59
2022/09/28 07:17:22;;;;;;;3.22;1.20;;;7.70;99.90;;;;;;4985746;28;20068;-59
2022/09/28 07:19:51;;;;;;;5.10;1.25;;;7.80;99.90;;;;;;4983536;28;20406;-59
2022/09/28 07:22:19;;;;;;;0.70;0.25;;;7.80;99.90;;;;;;4988282;28;20478;-59
2022/09/28 07:24:45;;;;;;;4.18;0.80;;;7.80;99.90;;;;;;4987991;28;20625;-59
2022/09/28 07:27:10;;;;;;;1.65;0.38;;;7.80;99.90;;;;;;4983236;28;20034;-58
2022/09/28 07:29:36;;;;;;;1.38;0.40;;;7.80;99.90;;;;;;4985036;28;20208;-59
2022/09/28 07:32:02;;;;;;;0.57;0.32;;;7.90;99.90;;;;;;4985348;28;20026;-59
2022/09/28 07:34:27;;;;;;;6.55;0.85;;;7.90;99.90;;;;;;4986192;28;20545;-58
2022/09/28 07:36:56;;;;;;;7.25;1.48;;;7.90;99.90;;;;;;4985827;28;20026;-59
2022/09/28 07:39:22;;;;;;;3.05;0.55;;;8.00;99.90;;;;;;4986048;28;20031;-59
2022/09/28 07:41:48;;;;;;;3.47;1.23;;;8.00;99.90;;;;;;4982952;28;20037;-58
2022/09/28 07:44:14;;;;;;;3.08;0.68;;;8.00;99.90;;;;;;4987100;28;20034;-59
2022/09/28 07:46:40;;;;;;;4.85;1.00;;;8.00;99.90;;;;;;4987825;28;20038;-59
2022/09/28 07:49:06;;;;;;;5.72;1.02;;;8.10;99.90;;;;;;4983363;28;20605;-59
2022/09/28 07:51:32;;;;;;;4.70;0.85;;;8.20;99.90;;;;;;4986887;28;20027;-59
2022/09/28 07:53:58;;;;;;;0.88;0.40;;;8.20;99.90;;;;;;4984362;28;21403;-58
2022/09/28 07:56:25;;;;;;;3.92;0.57;;;8.20;99.90;;;;;;4985124;28;20042;-59
2022/09/28 07:58:51;;;;;;;4.18;1.42;;;8.20;99.90;;;;;;4977517;28;20034;-59
2022/09/28 08:01:17;;;;;;;3.92;0.63;;;8.30;99.90;;;;;;4984449;28;20037;-59
2022/09/28 08:03:46;;;;;;;3.30;0.47;;;8.30;99.90;;;;;;4988793;28;20104;-59
2022/09/28 08:06:16;;;;;;;9.45;0.80;;;8.40;99.90;;;;;;4985185;28;20030;-60
2022/09/28 08:08:43;;;;;;;4.60;1.00;;;8.40;99.90;;;;;;4987150;28;20064;-59
2022/09/28 08:11:15;;;;;;;4.15;1.48;;;8.50;99.90;;;;;;4983023;28;20081;-59
2022/09/28 08:13:41;;;;;;;1.58;0.77;;;8.60;99.90;;;;;;4984401;28;20034;-60
2022/09/28 08:16:10;;;;;;;7.43;0.57;;;8.60;99.90;;;;;;4986292;28;20037;-61
2022/09/28 08:18:36;;;;;;;0.98;0.63;;;8.60;99.90;;;;;;4987372;28;20109;-60
2022/09/28 08:23:49;;;;;;;3.88;1.23;;;8.70;99.90;;;;;;4983415;28;20112;-60
2022/09/28 08:26:15;;;;;;;2.67;1.25;;;8.80;99.90;;;;;;4987658;28;20026;-60
2022/09/28 08:28:42;;;;;;;1.80;0.82;;;8.80;99.90;;;;;;4981785;28;21350;-60
2022/09/28 08:31:08;;;;;;;5.30;0.73;;;8.80;99.90;;;;;;4984650;28;20049;-60
2022/09/28 08:33:34;;;;;;;2.17;1.30;;;8.80;99.90;;;;;;4986583;28;20026;-60
2022/09/28 08:36:04;;;;;;;1.48;0.60;;;8.90;99.90;;;;;;4987317;28;20029;-58
2022/09/28 08:38:33;;;;;;;1.88;0.77;;;9.00;99.90;;;;;;4987422;28;20026;-59
2022/09/28 08:41:25;;;;;;;1.90;0.68;;;9.00;99.90;;;;;;4984790;28;20037;-59
2022/09/28 08:44:22;;;;;;;2.50;0.70;;;9.10;99.90;;;;;;4998969;28;20034;-59
2022/09/28 08:47:05;;;;;;;2.70;0.65;;;9.20;99.90;;;;;;4984512;28;20467;-59
2022/09/28 08:49:35;;;;;;;;;;;9.30;99.90;;;;;;4986558;28;20137;-61
2022/09/28 08:52:17;;;;;;;2.25;0.73;;;9.40;99.90;;;;;;4984896;28;19914;-60
2022/09/28 08:54:47;;;;;;;4.57;0.80;;;9.50;99.90;;;;;;4986569;28;20045;-59
2022/09/28 08:57:37;;;;;;;2.80;0.70;;;9.60;99.90;;;;;;4971896;28;20027;-60
2022/09/28 09:00:04;;;;;;;4.65;1.10;;;9.50;99.90;;;;;;4981363;28;20073;-60
2022/09/28 09:02:32;;;;;;;3.63;1.00;;;9.60;99.90;;;;;;4988050;28;20046;-58
2022/09/28 09:05:10;;;;;;;3.05;0.80;;;9.80;99.90;;;;;;4982217;28;20038;-60
2022/09/28 09:08:20;;;;;;;2.30;0.77;;;9.90;99.90;;;;;;4987435;28;20478;-60
2022/09/28 09:10:49;;;;;;;5.03;0.95;;;10.00;99.90;;;;;;4981796;28;20401;-59
2022/09/28 09:13:37;;;;;;;2.50;0.95;;;10.10;99.90;;;;;;4985100;28;20061;-59
2022/09/28 09:16:29;;;;;;;2.13;0.95;;;10.20;99.90;;;;;;4986311;28;20041;-60
2022/09/28 09:19:13;;;;;;;2.20;0.90;;;10.40;99.90;;;;;;4981765;28;20387;-58
2022/09/28 09:21:54;;;;;;;1.80;0.70;;;10.50;99.90;;;;;;4982584;28;20156;-59
2022/09/28 09:24:50;;;;;;;3.90;0.88;;;10.60;99.90;;;;;;4984226;28;20049;-59
2022/09/28 09:27:22;;;;;;;0.82;0.38;;;10.50;99.90;;;;;;4982797;28;20026;-60
2022/09/28 09:30:05;;;;;;;2.42;0.70;;;10.60;99.90;;;;;;4985361;28;20030;-59
2022/09/28 09:32:33;;;;;;;5.22;0.73;;;10.70;99.90;;;;;;4989535;28;20033;-59
2022/09/28 09:35:15;;;;;;;2.58;0.38;;;10.80;99.90;;;;;;4982952;28;20054;-58
2022/09/28 09:38:20;;;;;;;3.13;0.70;;;10.80;99.90;;;;;;4982455;28;20023;-60
2022/09/28 09:41:10;;;;;;;2.88;0.82;;;11.00;99.90;;;;;;4965614;28;20038;-58
2022/09/28 09:43:58;;;;;;;2.35;1.33;;;11.00;99.90;;;;;;4963213;28;20042;-59
2022/09/28 09:46:42;;;;;;;2.85;0.73;;;11.10;99.90;;;;;;4965470;28;20261;-59
2022/09/28 09:49:28;;;;;;;0.90;0.70;;;11.20;99.90;;;;;;4966864;28;21058;-59
2022/09/28 09:52:04;;;;;;;2.17;0.65;;;11.30;99.90;;;;;;4962795;28;20049;-58
2022/09/28 09:54:55;;;;;;;0.55;0.43;;;11.40;99.90;;;;;;4963475;28;20085;-59
2022/09/28 09:57:50;;;;;;;4.28;1.00;;;11.50;99.90;;;;;;4969056;28;20125;-60
2022/09/28 10:00:17;;;;;;;1.65;0.52;;;11.60;99.90;;;;;;4968899;28;20045;-60
2022/09/28 10:02:46;;;;;;;3.60;0.55;;;11.50;99.90;;;;;;4970127;28;20175;-60
2022/09/28 10:05:12;;;;;;;2.95;0.32;;;11.60;99.90;;;;;;4967863;28;20082;-60
2022/09/28 10:08:06;;;;;;;3.38;0.77;;;11.80;99.90;;;;;;4969244;28;20074;-59
2022/09/28 10:10:38;;;;;;;1.42;0.55;;;11.90;99.90;;;;;;4970302;28;20384;-59
2022/09/28 10:13:04;;;;;;;0.35;0.22;;;12.00;99.90;;;;;;4967501;28;20023;-60
2022/09/28 10:15:34;;;;;;;1.55;0.40;;;12.10;99.90;;;;;;4974584;28;20027;-60
2022/09/28 10:18:05;;;;;;;0.70;0.28;;;12.30;99.90;;;;;;4976846;28;20133;-58
2022/09/28 10:20:43;;;;;;;3.60;0.60;;;12.40;99.90;;;;;;4985677;28;20341;-60
2022/09/28 10:23:32;;;;;;;4.45;0.70;;;12.40;99.90;;;;;;4985321;28;20284;-60
2022/09/28 10:26:06;;;;;;;0.82;0.40;;;12.50;99.90;;;;;;4987016;28;20049;-60
2022/09/28 10:28:46;;;;;;;3.03;0.57;;;12.60;99.90;;;;;;4988930;28;20042;-59
2022/09/28 10:31:49;;;;;;;3.60;0.75;;;12.70;99.90;;;;;;4986712;28;20537;-60
2022/09/28 10:34:18;;;;;;;1.02;0.45;;;13.00;99.90;;;;;;4990118;28;20030;-60
2022/09/28 10:36:47;;;;;;;3.92;1.15;;;13.20;99.90;;;;;;4990105;28;20026;-60
2022/09/28 10:39:43;;;;;;;0.40;0.20;;;13.30;99.90;;;;;;4986155;28;20042;-59
2022/09/28 10:42:11;;;;;;;3.20;0.50;;;13.30;99.90;;;;;;4984753;28;20026;-60
2022/09/28 10:44:54;;;;;;;3.53;0.43;;;13.50;99.90;;;;;;4986594;28;20414;-59
2022/09/28 10:47:22;;;;;;;1.88;0.38;;;13.60;99.90;;;;;;4987654;28;20018;-59
2022/09/28 10:49:53;;;;;;;0.85;0.25;;;13.80;99.90;;;;;;4986034;28;20034;-59
2022/09/28 10:52:35;;;;;;;1.40;0.55;;;14.00;99.90;;;;;;4987760;28;20500;-59
2022/09/28 10:55:03;;;;;;;;;;;14.20;99.90;;;;;;4985577;28;20031;-59
2022/09/28 10:57:35;;;;;;;7.28;0.70;;;14.40;99.90;;;;;;4984088;28;20302;-58
2022/09/28 11:00:03;;;;;;;0.93;0.20;;;14.30;99.90;;;;;;4986191;28;20156;-59
2022/09/28 11:02:34;;;;;;;0.38;0.20;;;14.70;99.90;;;;;;4989571;28;20026;-60
2022/09/28 11:05:03;;;;;;;1.95;0.30;;;14.90;99.90;;;;;;4987612;28;20034;-60
2022/09/28 11:07:31;;;;;;;0.50;0.30;;;14.90;99.90;;;;;;4986019;28;20371;-59
2022/09/28 11:09:59;;;;;;;0.70;0.28;;;15.00;99.90;;;;;;4986434;28;20060;-60
2022/09/28 11:12:30;;;;;;;2.78;0.43;;;15.20;99.90;;;;;;4988049;28;20707;-59
2022/09/28 11:15:15;;;;;;;1.48;0.63;;;16.20;99.90;;;;;;4988041;28;20116;-61
2022/09/28 11:17:42;;;;;;;0.52;0.32;;;16.50;99.90;;;;;;4989686;28;20065;-61
2022/09/28 11:20:32;;;;;;;1.85;0.57;;;16.10;99.90;;;;;;4988172;28;21012;-61
2022/09/28 11:23:14;;;;;;;0.52;0.30;;;15.50;99.90;;;;;;5000035;28;20551;-60
2022/09/28 11:25:41;;;;;;;1.48;0.35;;;15.40;99.90;;;;;;4987017;28;20050;-60
2022/09/28 11:28:21;;;;;;;1.38;0.10;;;15.30;99.90;;;;;;4983982;28;20030;-60
2022/09/28 11:30:51;;;;;;;2.03;0.40;;;15.00;99.90;;;;;;4991390;28;20051;-60
2022/09/28 11:33:38;;;;;;;0.20;0.10;;;14.90;99.90;;;;;;4987282;28;20030;-59
2022/09/28 11:36:16;;;;;;;0.80;0.40;;;14.60;99.90;;;;;;4981527;28;20045;-60
2022/09/28 11:38:46;;;;;;;0.20;0.20;;;14.60;99.90;;;;;;4991555;28;20492;-59
2022/09/28 11:41:49;;;;;;;0.63;0.35;;;14.50;99.90;;;;;;4985365;28;20053;-59
2022/09/28 11:44:43;;;;;;;0.57;0.40;;;14.70;99.90;;;;;;4991864;28;20026;-59
2022/09/28 11:47:19;;;;;;;2.38;0.10;;;15.00;99.90;;;;;;4980437;28;20053;-60
2022/09/28 11:50:04;;;;;;;1.55;0.10;;;15.10;99.90;;;;;;4984746;28;20030;-61
2022/09/28 11:52:43;;;;;;;1.40;0.20;;;15.20;99.90;;;;;;4989219;28;20070;-60
2022/09/28 11:55:46;;;;;;;1.17;0.30;;;15.00;99.90;;;;;;4986711;28;20033;-61
2022/09/28 11:58:22;;;;;;;2.90;0.52;;;15.00;99.90;;;;;;4962794;28;20560;-60
2022/09/28 12:01:18;;;;;;;0.68;0.30;;;14.80;99.90;;;;;;4999879;28;20387;-60
2022/09/28 12:03:51;;;;;;;3.10;0.50;;;14.60;99.90;;;;;;4992331;28;20092;-61
2022/09/28 12:06:28;;;;;;;0.57;0.20;;;15.50;99.90;;;;;;4985812;28;20030;-60
2022/09/28 12:08:59;;;;;;;4.00;0.30;;;16.20;99.90;;;;;;4983917;28;20030;-60
2022/09/28 12:11:42;;;;;;;0.43;0.20;;;17.00;99.90;;;;;;4991123;28;20030;-59
2022/09/28 12:14:17;;;;;;;1.17;0.20;;;17.60;99.90;;;;;;4986302;28;20846;-60
2022/09/28 12:16:54;;;;;;;0.20;0.10;;;17.40;99.90;;;;;;4990738;28;20212;-60
2022/09/28 12:19:22;;;;;;;0.70;0.20;;;17.10;99.90;;;;;;4990143;28;20545;-60
2022/09/28 12:21:53;;;;;;;1.13;0.60;;;17.90;99.90;;;;;;4990196;28;20026;-60
2022/09/28 12:24:22;;;;;;;1.08;0.30;;;18.50;99.90;;;;;;4984753;28;20033;-61
2022/09/28 12:26:57;;;;;;;0.85;0.50;;;19.00;99.10;;;;;;4989518;28;20045;-60
2022/09/28 12:29:32;;;;;;;0.68;0.30;;;19.20;97.10;;;;;;4988859;28;20018;-60
2022/09/28 12:32:03;;;;;;;0.57;0.20;;;18.70;98.60;;;;;;4988345;28;20041;-60
2022/09/28 12:34:29;;;;;;;2.72;0.30;;;18.80;96.90;;;;;;4990135;28;20026;-61
2022/09/28 12:37:12;;;;;;;0.60;0.32;;;19.30;95.90;;;;;;4989304;28;20537;-59
2022/09/28 12:40:21;;;;;;;2.15;0.30;;;19.60;95.90;;;;;;4989170;28;20026;-59
2022/09/28 12:43:02;;;;;;;0.20;0.20;;;19.00;93.50;;;;;;4968201;28;20039;-60
2022/09/28 12:45:46;;;;;;;0.70;0.55;;;19.00;93.50;;;;;;4956525;28;20043;-60
2022/09/28 12:48:36;;;;;;;0.77;0.30;;;18.90;93.50;;;;;;4963183;28;20045;-59
2022/09/28 12:51:29;;;;;;;0.35;0.30;;;19.10;92.90;;;;;;4960024;28;20031;-59
2022/09/28 12:54:19;;;;;;;0.28;0.20;;;20.20;93.10;;;;;;4955962;28;20035;-60
2022/09/28 12:57:03;;;;;;;2.35;0.30;;;19.90;90.80;;;;;;4948799;28;20039;-60
2022/09/28 12:59:37;;;;;;;0.40;0.20;;;19.60;91.90;;;;;;4962482;28;20101;-60
2022/09/28 13:02:27;;;;;;;0.95;0.30;;;18.90;93.70;;;;;;4953631;28;20070;-61
2022/09/28 13:05:22;;;;;;;0.75;0.40;;;17.90;93.90;;;;;;4965342;28;20073;-60
2022/09/28 13:07:54;;;;;;;1.00;0.47;;;16.90;97.20;;;;;;4956625;28;20081;-60
2022/09/28 13:10:35;;;;;;;0.50;0.30;;;16.40;99.10;;;;;;4964570;28;20542;-60
2022/09/28 13:13:37;;;;;;;1.05;0.55;;;16.20;99.90;;;;;;4973918;28;20483;-60
2022/09/28 13:16:39;;;;;;;0.65;0.47;;;16.40;99.90;;;;;;4960004;28;20049;-61
2022/09/28 13:19:27;;;;;;;3.35;0.82;;;18.40;98.70;;;;;;4940713;28;20049;-62
2022/09/28 13:22:15;;;;;;;0.45;0.25;;;20.50;94.60;;;;;;4984856;28;20022;-60
2022/09/28 13:24:43;;;;;;;0.60;0.20;;;21.40;88.40;;;;;;4986737;28;20046;-59
2022/09/28 13:27:18;;;;;;;1.23;0.30;;;20.80;87.80;;;;;;4987246;28;20468;-60
2022/09/28 13:29:44;;;;;;;1.02;0.38;;;20.00;90.00;;;;;;4988899;28;20038;-60
2022/09/28 13:32:11;;;;;;;1.13;0.20;;;19.40;91.10;;;;;;4985722;28;20030;-60